Floreffe, Pennsylvania
Current Conditions -  °F | °C
As of 9:53 PM on Monday 20 Oct 2014 (Local Time) from KAGC Reporting Station
Overcast Overcast  
Wind Chill: 52°   Ceiling: 5500
Heat Index: 52°   Visibility: 10mi
Dew Point: 41°   Wind: 9mph
Humidity: 66%   Direction: 210°SSW
Pressure: 29.88"   Gusts: NA
Location:  40.2958°N, 79.9241°W
Report Text: KAGC 210153Z 21008KT 10SM OVC055 11/05 A2988 RMK AO2 RAB35E52 SLP127 P0000 T01110050
Loading
Personal Weather Stations






























Interactive Weather Map
Tropical Storm Tracking
New forecast layout! Learn more

10-Day Weather Forecast

Advertisements
Track Severe Weather on mobile